Time;durP1;ratioP1;P1;durP2;ratioP2;P2;SDS_P1;SDS_P2;PMS_P1;PMS_P2;Temp;Humidity;BMP_temperature;BMP_pressure;BME280_temperature;BME280_humidity;BME280_pressure;Samples;Min_cycle;Max_cycle;Signal;HPM_P1;HPM_P2
2022/12/04 00:01:41;;;;;;;29.13;15.60;;;;;;;2.84;80.45;101238.34;5037933;28;20037;-61
2022/12/04 00:04:08;;;;;;;33.20;16.83;;;;;;;2.83;80.73;101234.03;5038235;28;20598;-60
2022/12/04 00:06:33;;;;;;;32.67;16.63;;;;;;;2.82;80.17;101230.63;5038189;28;20422;-61
2022/12/04 00:08:59;;;;;;;35.42;16.95;;;;;;;2.83;80.50;101229.81;5037544;28;20032;-61
2022/12/04 00:11:28;;;;;;;35.10;17.15;;;;;;;2.82;80.84;101232.28;5060240;28;20082;-62
2022/12/04 00:13:54;;;;;;;31.05;15.98;;;;;;;2.82;81.69;101224.63;5056404;28;20044;-62
2022/12/04 00:16:22;;;;;;;35.88;17.52;;;;;;;2.84;81.41;101230.69;5050969;28;20086;-60
2022/12/04 00:18:49;;;;;;;33.45;16.17;;;;;;;2.86;80.92;101236.69;5053581;28;20041;-60
2022/12/04 00:21:16;;;;;;;31.80;14.75;;;;;;;2.87;80.57;101228.22;5057538;28;20036;-61
2022/12/04 00:23:42;;;;;;;30.35;15.02;;;;;;;2.87;80.94;101231.59;5055584;28;20028;-60
2022/12/04 00:26:20;;;;;;;30.48;15.60;;;;;;;2.89;80.41;101229.13;5060774;28;20771;-60
2022/12/04 00:28:47;;;;;;;25.13;12.98;;;;;;;2.91;80.25;101227.47;5050980;28;20041;-61
2022/12/04 00:31:16;;;;;;;26.50;13.57;;;;;;;2.91;80.10;101220.69;5053424;28;20042;-60
2022/12/04 00:33:41;;;;;;;25.60;13.02;;;;;;;2.95;79.65;101221.66;5054894;28;20064;-60
2022/12/04 00:36:10;;;;;;;25.67;12.25;;;;;;;2.96;78.75;101216.56;5050248;28;20140;-61
2022/12/04 00:38:37;;;;;;;23.23;11.65;;;;;;;3.01;78.43;101221.81;5055342;28;20108;-61
2022/12/04 00:41:03;;;;;;;22.52;11.27;;;;;;;3.02;78.63;101217.59;5054070;28;20086;-60
2022/12/04 00:43:30;;;;;;;24.17;12.18;;;;;;;3.01;77.94;101220.94;5050108;28;20048;-60
2022/12/04 00:45:56;;;;;;;26.73;13.30;;;;;;;3.02;78.41;101215.03;5056843;28;20061;-60
2022/12/04 00:48:22;;;;;;;31.92;15.75;;;;;;;2.99;79.18;101216.66;5052178;28;20131;-61
2022/12/04 00:50:47;;;;;;;29.73;15.18;;;;;;;2.96;80.02;101215.72;5057373;28;20105;-60
2022/12/04 00:53:12;;;;;;;37.42;16.55;;;;;;;2.92;80.45;101212.22;5054134;28;20126;-61
2022/12/04 00:55:42;;;;;;;28.48;14.75;;;;;;;2.91;80.75;101207.91;5056717;28;20374;-61
2022/12/04 00:58:08;;;;;;;33.35;16.00;;;;;;;2.90;79.84;101207.88;5055611;28;20028;-62
2022/12/04 01:00:34;;;;;;;33.58;16.50;;;;;;;2.87;80.05;101207.78;5052588;28;20434;-60
2022/12/04 01:03:00;;;;;;;30.48;15.82;;;;;;;2.85;79.46;101209.41;5051723;28;20032;-61
2022/12/04 01:05:25;;;;;;;30.23;15.38;;;;;;;2.82;79.41;101205.09;5049249;28;20079;-60
2022/12/04 01:07:52;;;;;;;33.83;15.80;;;;;;;2.81;80.26;101213.59;5048951;28;20685;-61
2022/12/04 01:10:18;;;;;;;32.38;16.42;;;;;;;2.81;80.02;101213.59;5052013;28;20114;-61
2022/12/04 01:12:43;;;;;;;34.45;16.83;;;;;;;2.79;80.32;101215.22;5057919;28;20521;-61
2022/12/04 01:15:09;;;;;;;29.75;15.70;;;;;;;2.77;79.95;101213.44;5053165;28;20035;-61
2022/12/04 01:17:34;;;;;;;30.67;14.88;;;;;;;2.79;79.46;101205.00;5053644;28;20036;-61
2022/12/04 01:20:00;;;;;;;32.53;15.65;;;;;;;2.77;79.87;101205.78;5056342;28;20036;-61
2022/12/04 01:22:25;;;;;;;30.17;15.60;;;;;;;2.77;79.29;101205.78;5056348;28;20036;-60
2022/12/04 01:24:55;;;;;;;33.75;16.20;;;;;;;2.77;79.77;101210.88;5056736;28;20037;-60
2022/12/04 01:27:20;;;;;;;30.83;15.63;;;;;;;2.77;79.02;101211.75;5055003;28;20557;-61
2022/12/04 01:29:45;;;;;;;31.85;16.25;;;;;;;2.76;79.13;101212.56;5051697;28;20025;-61
2022/12/04 01:32:11;;;;;;;32.33;16.05;;;;;;;2.76;79.07;101219.34;5049550;28;20048;-61
2022/12/04 01:34:36;;;;;;;29.27;14.55;;;;;;;2.75;79.61;101210.84;5051894;28;20041;-60
2022/12/04 01:37:02;;;;;;;28.23;14.50;;;;;;;2.74;78.32;101206.56;5051681;28;20039;-60
2022/12/04 01:39:27;;;;;;;29.73;14.38;;;;;;;2.76;77.97;101198.94;5053199;28;20037;-61
2022/12/04 01:41:52;;;;;;;21.45;11.65;;;;;;;2.76;77.39;101202.34;5050737;28;20464;-61
2022/12/04 01:44:21;;;;;;;26.05;13.25;;;;;;;2.75;78.03;101203.19;5049212;28;20040;-60
2022/12/04 01:46:51;;;;;;;20.52;11.45;;;;;;;2.77;77.87;101193.88;5054169;28;20033;-61
2022/12/04 01:49:21;;;;;;;22.08;11.48;;;;;;;2.76;77.02;101201.47;5054888;28;20305;-60
2022/12/04 01:51:51;;;;;;;21.52;11.43;;;;;;;2.69;75.76;101191.94;5054406;28;20075;-61
2022/12/04 01:54:33;;;;;;;18.23;10.45;;;;;;;2.68;76.56;101187.63;5049149;28;20503;-60
2022/12/04 01:57:05;;;;;;;23.52;12.52;;;;;;;2.67;76.94;101199.53;5053203;28;20036;-61
2022/12/04 01:59:37;;;;;;;22.98;12.02;;;;;;;2.66;76.71;101205.47;5057067;28;20035;-61
2022/12/04 02:02:07;;;;;;;21.88;11.68;;;;;;;2.67;76.03;101202.06;5054847;28;20036;-61
2022/12/04 02:04:34;;;;;;;23.15;11.75;;;;;;;2.68;76.52;101200.41;5055968;28;20036;-61
2022/12/04 02:06:59;;;;;;;25.73;12.32;;;;;;;2.67;77.14;101207.19;5057536;28;20028;-61
2022/12/04 02:09:25;;;;;;;22.27;11.68;;;;;;;2.66;76.65;101208.03;5056591;28;20039;-61
2022/12/04 02:12:14;;;;;;;24.00;12.30;;;;;;;2.67;77.16;101207.19;5058489;28;20617;-61
2022/12/04 02:14:59;;;;;;;25.05;11.77;;;;;;;2.68;77.50;101205.50;5050991;28;20071;-61
2022/12/04 02:17:37;;;;;;;;;;;;;;;2.68;77.00;101195.28;5051726;28;20405;-60
2022/12/04 02:20:12;;;;;;;23.10;11.95;;;;;;;2.68;77.47;101202.94;5053378;28;20385;-61
2022/12/04 02:23:16;;;;;;;23.80;11.10;;;;;;;2.66;77.55;101202.91;5057241;28;20501;-61
2022/12/04 02:26:11;;;;;;;20.80;10.98;;;;;;;2.67;77.51;101202.06;5048220;28;20082;-61
2022/12/04 02:28:43;;;;;;;23.00;11.52;;;;;;;2.67;78.30;101211.41;5055575;28;20932;-60
2022/12/04 02:31:17;;;;;;;20.70;11.52;;;;;;;2.67;78.29;101211.41;5051155;28;20063;-61
2022/12/04 02:34:12;;;;;;;21.73;11.60;;;;;;;2.65;77.10;101213.94;5047928;28;20127;-61
2022/12/04 02:36:48;;;;;;;21.25;10.88;;;;;;;2.65;77.23;101207.97;5050279;28;20078;-60
2022/12/04 02:39:23;;;;;;;20.52;10.35;;;;;;;2.60;76.09;101201.84;5052424;28;20028;-61
2022/12/04 02:42:03;;;;;;;;;;;;;;;2.56;76.64;101207.69;5049453;28;20032;-61
2022/12/04 02:44:36;;;;;;;19.30;9.55;;;;;;;2.55;76.60;101205.97;5053543;28;19920;-62
2022/12/04 02:47:06;;;;;;;20.63;10.55;;;;;;;2.54;77.02;101216.97;5056981;28;20537;-61
2022/12/04 02:49:36;;;;;;;21.30;10.00;;;;;;;2.55;77.37;101217.00;5051250;28;20048;-61
2022/12/04 02:52:05;;;;;;;20.42;10.68;;;;;;;2.56;77.05;101221.31;5050799;28;20525;-60
2022/12/04 02:54:39;;;;;;;17.55;9.82;;;;;;;2.55;76.86;101213.63;5050400;28;20045;-61
2022/12/04 02:57:10;;;;;;;21.13;11.23;;;;;;;2.55;77.55;101221.28;5049891;28;20501;-61
2022/12/04 02:59:46;;;;;;;20.35;11.02;;;;;;;2.54;77.64;101214.44;5054407;28;20033;-60
2022/12/04 03:02:33;;;;;;;19.60;10.68;;;;;;;2.52;77.80;101216.91;5050871;28;20571;-61
2022/12/04 03:05:01;;;;;;;19.17;10.70;;;;;;;2.52;77.89;101214.38;5046970;28;20109;-61
2022/12/04 03:07:34;;;;;;;19.10;11.02;;;;;;;2.50;77.06;101208.34;5057733;28;20089;-61
2022/12/04 03:10:08;;;;;;;20.75;10.30;;;;;;;2.50;77.05;101208.34;5052924;28;20098;-61
2022/12/04 03:12:47;;;;;;;18.70;9.70;;;;;;;2.46;76.92;101210.78;5053971;28;20114;-60
2022/12/04 03:15:27;;;;;;;18.92;10.40;;;;;;;2.43;76.54;101208.97;5056833;28;20755;-61
2022/12/04 03:18:07;;;;;;;16.00;9.18;;;;;;;2.41;76.39;101211.50;5050805;28;20098;-61
2022/12/04 03:20:35;;;;;;;19.73;10.98;;;;;;;2.38;76.26;101207.97;5057981;28;20417;-61
2022/12/04 03:23:10;;;;;;;16.88;9.02;;;;;;;2.37;76.87;101201.13;5053076;28;20036;-61
2022/12/04 03:25:47;;;;;;;18.63;9.30;;;;;;;2.38;77.28;101210.53;5058693;28;20123;-61
2022/12/04 03:28:24;;;;;;;17.35;8.75;;;;;;;2.37;77.11;101214.75;5053001;28;20040;-60
2022/12/04 03:30:58;;;;;;;14.98;8.70;;;;;;;2.39;76.37;101210.59;5055064;28;20041;-61
2022/12/04 03:33:33;;;;;;;16.38;10.00;;;;;;;2.39;76.59;101218.25;5052826;28;20540;-60
2022/12/04 03:36:07;;;;;;;16.17;8.73;;;;;;;2.38;76.83;101220.72;5059533;28;20032;-60
2022/12/04 03:39:02;;;;;;;16.95;8.75;;;;;;;2.39;76.82;101214.81;5057850;28;20469;-61
2022/12/04 03:42:00;;;;;;;17.77;9.68;;;;;;;2.39;76.60;101219.91;5060903;28;20045;-60
2022/12/04 03:44:28;;;;;;;19.27;9.68;;;;;;;2.36;76.11;101215.59;5058135;28;20048;-61
2022/12/04 03:47:00;;;;;;;17.70;9.45;;;;;;;2.36;76.27;101214.72;5059894;28;20118;-61
2022/12/04 03:49:43;;;;;;;18.27;9.65;;;;;;;2.34;76.60;101216.34;5060957;28;20032;-61
2022/12/04 03:52:26;;;;;;;17.50;9.07;;;;;;;2.31;76.03;101219.66;5061383;28;20578;-61
2022/12/04 03:55:06;;;;;;;18.55;9.60;;;;;;;2.33;76.29;101217.19;5062802;28;20033;-60
2022/12/04 03:57:36;;;;;;;16.35;8.63;;;;;;;2.32;76.34;101212.88;5061041;28;20060;-60
2022/12/04 04:00:15;;;;;;;16.13;9.07;;;;;;;2.29;76.36;101208.56;5055226;28;20676;-61
2022/12/04 04:02:52;;;;;;;18.48;9.63;;;;;;;2.27;76.93;101214.44;5049592;28;20064;-60
2022/12/04 04:05:19;;;;;;;17.48;8.88;;;;;;;2.28;76.34;101218.72;5056515;28;20044;-61
2022/12/04 04:07:49;;;;;;;17.83;9.45;;;;;;;2.27;76.63;101212.75;5057417;28;20047;-60
2022/12/04 04:10:18;;;;;;;17.08;9.15;;;;;;;2.29;76.39;101218.75;5056459;28;20051;-61
2022/12/04 04:24:20;;;;;;;16.77;9.48;;;;;;;2.29;77.42;101213.66;5057764;28;20131;-60
2022/12/04 04:26:48;;;;;;;15.93;9.15;;;;;;;2.30;77.46;101206.88;5060250;28;20740;-61
2022/12/04 04:29:13;;;;;;;17.20;9.10;;;;;;;2.30;77.22;101201.78;5057037;28;20029;-60
2022/12/04 04:31:41;;;;;;;16.48;8.88;;;;;;;2.26;77.27;101202.47;5048366;28;20141;-60
2022/12/04 04:34:22;;;;;;;15.80;8.85;;;;;;;2.27;77.14;101204.22;5054222;28;20033;-60
2022/12/04 04:37:01;;;;;;;15.35;8.20;;;;;;;2.28;76.89;101198.31;5049062;28;20140;-60
2022/12/04 04:39:32;;;;;;;16.17;9.18;;;;;;;2.28;77.20;101198.31;5058509;28;20036;-61
2022/12/04 04:42:02;;;;;;;17.00;8.73;;;;;;;2.23;77.23;101193.06;5057859;28;20037;-60
2022/12/04 04:44:32;;;;;;;16.10;8.35;;;;;;;2.23;76.86;101199.84;5058277;28;20071;-61
2022/12/04 04:47:02;;;;;;;17.85;9.50;;;;;;;2.22;76.77;101206.63;5054816;28;20567;-60
2022/12/04 04:49:32;;;;;;;17.33;9.13;;;;;;;2.23;77.18;101210.03;5052950;28;20041;-60
2022/12/04 04:52:00;;;;;;;16.98;9.35;;;;;;;2.20;77.20;101202.28;5054454;28;20037;-60
2022/12/04 04:54:28;;;;;;;16.50;8.88;;;;;;;2.20;77.76;101200.59;5054651;28;20039;-60
2022/12/04 04:56:53;;;;;;;14.43;8.00;;;;;;;2.14;76.42;101195.31;5050667;28;20041;-61
2022/12/04 04:59:19;;;;;;;14.85;7.60;;;;;;;2.12;76.00;101188.44;5049886;28;20040;-60
2022/12/04 05:01:45;;;;;;;16.48;8.85;;;;;;;2.10;76.39;101190.91;5038347;28;20056;-60
2022/12/04 05:04:12;;;;;;;14.05;8.32;;;;;;;2.10;77.06;101190.91;5041218;28;20044;-60
2022/12/04 05:06:37;;;;;;;16.25;7.95;;;;;;;2.04;76.92;101189.88;5035442;28;20041;-60
2022/12/04 05:09:02;;;;;;;13.55;7.60;;;;;;;2.03;76.89;101191.56;5054703;28;20025;-61
2022/12/04 05:11:28;;;;;;;15.73;8.38;;;;;;;2.03;76.89;101196.66;5052984;28;20020;-61
2022/12/04 05:13:53;;;;;;;18.85;8.55;;;;;;;2.03;76.77;101196.66;5039124;28;20442;-62
2022/12/04 05:16:19;;;;;;;13.05;7.70;;;;;;;2.02;77.72;101205.09;5031964;28;20528;-60
2022/12/04 05:19:52;;;;;;;15.45;7.43;;;;;;;2.00;77.55;101203.34;5039140;28;20036;-60
2022/12/04 05:21:32;;;;;;;;;;;;;;;1.96;77.24;101199.81;5036748;28;20529;-61
2022/12/04 05:23:57;;;;;;;13.52;7.53;;;;;;;1.94;77.38;101193.81;5030059;28;19921;-61
2022/12/04 05:26:23;;;;;;;13.68;7.72;;;;;;;1.95;77.12;101194.69;5052698;28;20032;-60
2022/12/04 05:28:48;;;;;;;13.63;7.60;;;;;;;1.95;77.58;101194.69;5038559;28;20763;-60
2022/12/04 05:31:14;;;;;;;13.35;7.90;;;;;;;1.92;77.12;101198.00;5028736;28;20034;-60
2022/12/04 05:33:39;;;;;;;14.13;7.85;;;;;;;1.89;77.67;101197.91;5036648;28;20037;-60
2022/12/04 05:36:07;;;;;;;14.35;7.95;;;;;;;1.90;78.34;101196.19;5034198;28;20653;-61
2022/12/04 05:38:33;;;;;;;17.10;8.75;;;;;;;1.89;78.10;101195.34;5039639;28;20024;-61
2022/12/04 05:40:59;;;;;;;12.30;7.57;;;;;;;1.88;78.25;101197.81;5051613;28;20533;-60
2022/12/04 05:43:25;;;;;;;14.85;8.02;;;;;;;1.85;77.68;101196.91;5038427;28;20044;-61
2022/12/04 05:45:50;;;;;;;16.35;8.70;;;;;;;1.83;77.84;101205.34;5045851;28;20544;-61
2022/12/04 05:48:16;;;;;;;13.65;7.68;;;;;;;1.81;77.79;101194.19;5053107;28;20075;-60
2022/12/04 05:50:41;;;;;;;11.73;7.00;;;;;;;1.77;77.33;101192.38;5052885;28;20036;-60
2022/12/04 05:53:07;;;;;;;14.18;7.20;;;;;;;1.76;77.67;101190.63;5049028;28;20170;-60
2022/12/04 05:55:32;;;;;;;14.15;8.20;;;;;;;1.77;77.88;101189.84;5044622;28;20073;-60
2022/12/04 05:57:58;;;;;;;13.55;7.03;;;;;;;1.76;77.98;101191.50;5035875;28;20039;-60
2022/12/04 06:00:23;;;;;;;13.75;7.47;;;;;;;1.77;77.71;101198.34;5031405;28;20740;-60
2022/12/04 06:02:48;;;;;;;13.68;7.57;;;;;;;1.77;77.66;101193.25;5049891;28;20041;-61
2022/12/04 06:05:14;;;;;;;14.15;6.72;;;;;;;1.74;78.41;101195.69;5049908;28;20044;-61
2022/12/04 06:07:39;;;;;;;11.98;6.53;;;;;;;1.75;77.77;101199.97;5039784;28;20045;-61
2022/12/04 06:10:05;;;;;;;15.57;8.43;;;;;;;1.74;78.46;101205.03;5030215;28;20060;-60
2022/12/04 06:12:31;;;;;;;14.45;7.20;;;;;;;1.72;77.84;101204.09;5030689;28;20194;-60
2022/12/04 06:14:56;;;;;;;15.10;8.07;;;;;;;1.68;78.25;101210.78;5031184;28;20041;-61
2022/12/04 06:17:21;;;;;;;13.25;7.47;;;;;;;1.71;78.51;101210.00;5031846;28;20021;-61
2022/12/04 06:19:52;;;;;;;14.07;7.88;;;;;;;1.70;77.98;101208.25;5034452;28;20033;-61
2022/12/04 06:22:17;;;;;;;14.32;8.60;;;;;;;1.69;78.93;101215.03;5030699;28;20287;-60
2022/12/04 06:24:43;;;;;;;14.38;7.88;;;;;;;1.72;78.66;101219.38;5038013;28;20498;-61
2022/12/04 06:27:08;;;;;;;15.43;8.05;;;;;;;1.72;78.65;101215.16;5052465;28;20039;-60
2022/12/04 06:29:33;;;;;;;11.75;7.22;;;;;;;1.72;78.67;101217.69;5027370;28;20441;-60
2022/12/04 06:31:59;;;;;;;14.93;7.63;;;;;;;1.72;78.74;101217.69;5053480;28;20041;-60
2022/12/04 06:34:24;;;;;;;14.90;7.75;;;;;;;1.73;78.45;101216.88;5035158;28;20051;-60
2022/12/04 06:36:49;;;;;;;16.48;9.02;;;;;;;1.72;78.09;101221.91;5034901;28;20046;-60
2022/12/04 06:39:15;;;;;;;15.23;8.23;;;;;;;1.72;78.46;101225.34;5039533;28;20745;-60
2022/12/04 06:41:40;;;;;;;16.33;8.43;;;;;;;1.75;78.45;101235.63;5052264;28;20028;-61
2022/12/04 06:44:06;;;;;;;14.10;7.78;;;;;;;1.77;79.10;101226.38;5055239;28;20048;-60
2022/12/04 06:46:33;;;;;;;15.88;8.68;;;;;;;1.77;79.14;101228.06;5039929;28;20587;-60
2022/12/04 06:49:00;;;;;;;14.68;8.35;;;;;;;1.77;79.00;101225.50;5044123;28;20029;-60
2022/12/04 06:51:36;;;;;;;19.25;8.90;;;;;;;1.76;78.60;101222.09;5051783;28;20047;-59
2022/12/04 06:54:02;;;;;;;18.00;8.52;;;;;;;1.78;78.83;101223.00;5051369;28;20045;-59
2022/12/04 06:56:31;;;;;;;16.25;9.90;;;;;;;1.78;78.88;101228.09;5052166;28;20049;-59
2022/12/04 06:58:59;;;;;;;15.45;8.98;;;;;;;1.77;78.69;101236.56;5047694;28;20090;-59
2022/12/04 07:01:28;;;;;;;15.80;9.02;;;;;;;1.78;78.89;101235.75;5046509;28;20033;-60
2022/12/04 07:03:55;;;;;;;17.55;9.52;;;;;;;1.81;79.15;101234.97;5053319;28;20143;-59
2022/12/04 07:06:23;;;;;;;17.02;8.50;;;;;;;1.82;79.34;101239.28;5050507;28;20029;-59
2022/12/04 07:08:51;;;;;;;20.75;11.40;;;;;;;1.78;79.13;101229.78;5052120;28;20044;-59
2022/12/04 07:11:18;;;;;;;31.17;18.63;;;;;;;1.76;77.81;101232.28;5053748;28;20068;-59
2022/12/04 07:13:43;;;;;;;27.30;15.90;;;;;;;1.73;78.36;101234.72;5055896;28;20059;-59
2022/12/04 07:16:12;;;;;;;47.22;29.08;;;;;;;1.72;78.76;101242.31;5053196;28;20123;-59
2022/12/04 07:18:37;;;;;;;37.75;22.98;;;;;;;1.70;79.19;101239.72;5055966;28;20040;-59
2022/12/04 07:21:07;;;;;;;27.05;15.90;;;;;;;1.70;78.52;101246.50;5055864;28;20052;-59
2022/12/04 07:23:34;;;;;;;51.85;33.42;;;;;;;1.66;78.91;101242.97;5052116;28;20032;-59
2022/12/04 07:26:07;;;;;;;33.30;21.42;;;;;;;1.68;79.53;101250.66;5053363;28;20039;-59
2022/12/04 07:28:33;;;;;;;20.55;11.93;;;;;;;1.70;79.14;101246.50;5051780;28;20131;-59
2022/12/04 07:31:01;;;;;;;22.27;11.63;;;;;;;1.67;79.24;101243.84;5050609;28;20121;-59
2022/12/04 07:33:27;;;;;;;18.75;10.60;;;;;;;1.65;79.28;101240.38;5047334;28;20036;-59
2022/12/04 07:35:57;;;;;;;18.85;10.32;;;;;;;1.64;79.52;101241.19;5033216;28;20910;-59
2022/12/04 07:38:22;;;;;;;16.83;9.88;;;;;;;1.64;78.99;101236.09;5054492;28;20159;-60
2022/12/04 07:40:48;;;;;;;17.85;9.98;;;;;;;1.63;79.39;101235.22;5041979;28;20045;-59
2022/12/04 07:43:13;;;;;;;17.13;9.73;;;;;;;1.65;79.82;101227.63;5032968;28;20083;-59
2022/12/04 07:45:39;;;;;;;21.33;11.65;;;;;;;1.67;79.68;101229.41;5044978;28;20041;-59
2022/12/04 07:48:04;;;;;;;17.58;10.00;;;;;;;1.67;79.40;101237.06;5054398;28;20041;-59
2022/12/04 07:50:29;;;;;;;19.15;11.32;;;;;;;1.67;79.07;101226.00;5031953;28;20049;-60
2022/12/04 07:52:55;;;;;;;19.48;11.10;;;;;;;1.68;79.71;101237.94;5039287;28;20033;-59
2022/12/04 07:55:20;;;;;;;18.02;9.70;;;;;;;1.70;79.79;101236.28;5038448;28;20068;-59
2022/12/04 07:57:45;;;;;;;19.58;10.98;;;;;;;1.69;79.71;101240.53;5036136;28;20076;-60
2022/12/04 08:00:12;;;;;;;22.90;11.48;;;;;;;1.70;79.30;101238.84;5034236;28;20036;-59
2022/12/04 08:02:37;;;;;;;22.83;11.45;;;;;;;1.70;79.97;101241.41;5037724;28;20056;-59
2022/12/04 08:05:02;;;;;;;22.23;13.23;;;;;;;1.67;79.56;101238.75;5040957;28;20041;-59
2022/12/04 08:07:28;;;;;;;20.38;12.40;;;;;;;1.68;79.55;101235.38;5035747;28;20037;-59
2022/12/04 08:09:53;;;;;;;19.02;10.13;;;;;;;1.68;79.70;101236.25;5028177;28;20111;-59
2022/12/04 08:12:19;;;;;;;20.17;11.02;;;;;;;1.71;79.36;101244.00;5033984;28;20045;-59
2022/12/04 08:14:44;;;;;;;21.10;11.00;;;;;;;1.75;79.64;101240.72;5040972;28;20045;-59
2022/12/04 08:17:09;;;;;;;22.02;10.65;;;;;;;1.75;79.86;101242.41;5037586;28;20531;-59
2022/12/04 08:19:35;;;;;;;24.42;11.48;;;;;;;1.78;79.42;101243.38;5033863;28;20091;-59
2022/12/04 08:22:00;;;;;;;23.33;10.38;;;;;;;1.81;79.53;101237.53;5041300;28;20040;-59
2022/12/04 08:24:25;;;;;;;19.20;10.52;;;;;;;1.78;78.60;101239.97;5056288;28;20047;-59
2022/12/04 08:26:52;;;;;;;20.20;11.95;;;;;;;1.79;79.02;101237.50;5058173;28;20055;-59
2022/12/04 08:29:18;;;;;;;20.17;11.38;;;;;;;1.78;78.95;101239.97;5060565;28;20040;-59
2022/12/04 08:31:43;;;;;;;21.58;10.93;;;;;;;1.81;79.36;101243.50;5054410;28;20139;-59
2022/12/04 08:34:09;;;;;;;19.23;11.25;;;;;;;1.84;79.07;101241.06;5057008;28;20120;-60
2022/12/04 08:36:34;;;;;;;21.00;11.35;;;;;;;1.85;78.53;101237.69;5055004;28;20040;-59
2022/12/04 08:39:00;;;;;;;20.23;11.07;;;;;;;1.87;79.46;101232.63;5059931;28;20031;-61
2022/12/04 08:41:26;;;;;;;18.95;10.27;;;;;;;1.88;78.37;101234.38;5055725;28;20136;-61
2022/12/04 08:43:54;;;;;;;19.92;10.77;;;;;;;1.87;78.46;101237.72;5055435;28;20044;-61
2022/12/04 08:46:20;;;;;;;19.70;11.20;;;;;;;1.88;78.26;101231.84;5060156;28;20071;-61
2022/12/04 08:48:46;;;;;;;21.17;11.68;;;;;;;1.92;78.62;101236.22;5053697;28;20493;-61
2022/12/04 08:51:17;;;;;;;17.70;11.98;;;;;;;1.95;78.26;101226.13;5053128;28;20189;-61
2022/12/04 08:53:42;;;;;;;20.40;11.48;;;;;;;1.97;78.09;101227.03;5052113;28;20150;-61
2022/12/04 08:56:08;;;;;;;19.30;11.40;;;;;;;2.05;78.14;101235.81;5053590;28;20032;-61
2022/12/04 08:58:34;;;;;;;16.10;10.32;;;;;;;2.07;78.59;101240.97;5051458;28;20708;-61
2022/12/04 09:01:08;;;;;;;20.75;10.98;;;;;;;2.09;78.03;101246.97;5051659;28;20036;-60
2022/12/04 09:03:34;;;;;;;18.77;10.77;;;;;;;2.08;78.58;101258.84;5053589;28;20666;-61
2022/12/04 09:06:01;;;;;;;19.15;11.05;;;;;;;2.07;78.17;101251.16;5056858;28;20116;-61
2022/12/04 09:08:27;;;;;;;19.00;10.18;;;;;;;2.07;78.05;101261.38;5058629;28;20033;-60
2022/12/04 09:10:52;;;;;;;21.75;10.43;;;;;;;2.07;78.21;101256.28;5047937;28;20048;-61
2022/12/04 09:13:18;;;;;;;18.67;10.38;;;;;;;2.03;78.36;101257.84;5055931;28;20433;-61
2022/12/04 09:15:43;;;;;;;20.98;10.88;;;;;;;2.02;78.26;101258.66;5059962;28;20045;-61
2022/12/04 09:18:09;;;;;;;17.45;9.85;;;;;;;2.03;78.22;101262.94;5057679;28;20036;-61
2022/12/04 09:20:35;;;;;;;20.92;10.75;;;;;;;2.04;79.14;101263.81;5052287;28;20037;-61
2022/12/04 09:23:01;;;;;;;17.60;10.55;;;;;;;2.07;78.76;101262.25;5053502;28;20032;-61
2022/12/04 09:25:26;;;;;;;18.95;10.02;;;;;;;2.09;78.89;101263.16;5055853;28;20514;-61
2022/12/04 09:27:52;;;;;;;21.77;10.90;;;;;;;2.13;78.93;101262.41;5049088;28;20078;-61
2022/12/04 09:30:17;;;;;;;17.75;10.55;;;;;;;2.15;78.50;101265.03;5039160;28;20090;-61
2022/12/04 09:32:43;;;;;;;16.42;10.20;;;;;;;2.11;77.99;101268.28;5052838;28;20040;-61
2022/12/04 09:35:09;;;;;;;17.48;9.48;;;;;;;2.13;77.50;101256.47;5056448;28;20090;-61
2022/12/04 09:37:35;;;;;;;15.80;9.20;;;;;;;2.11;77.73;101261.50;5052404;28;20047;-61
2022/12/04 09:40:03;;;;;;;15.55;8.82;;;;;;;2.13;77.59;101257.31;5050326;28;20042;-61
2022/12/04 09:42:41;;;;;;;18.55;9.95;;;;;;;2.16;77.68;101256.56;5051004;28;20121;-61
2022/12/04 09:45:17;;;;;;;17.30;9.85;;;;;;;2.20;77.95;101255.84;5041783;28;20047;-61
2022/12/04 09:47:51;;;;;;;18.83;10.63;;;;;;;2.27;78.55;101260.34;5048839;28;20146;-61
2022/12/04 09:50:27;;;;;;;14.43;9.40;;;;;;;2.33;77.88;101255.44;5038544;28;20733;-61
2022/12/04 09:53:01;;;;;;;17.33;9.80;;;;;;;2.33;77.20;101245.22;5048924;28;20032;-61
2022/12/04 09:55:41;;;;;;;16.55;8.88;;;;;;;2.33;77.56;101247.78;5048035;28;20597;-61
2022/12/04 09:58:13;;;;;;;14.90;8.48;;;;;;;2.37;77.64;101252.16;5037717;28;20043;-61
2022/12/04 10:00:43;;;;;;;16.20;9.32;;;;;;;2.41;77.59;101251.44;5036242;28;20041;-61
2022/12/04 10:03:15;;;;;;;16.40;9.10;;;;;;;2.43;77.11;101252.34;5026833;28;20017;-61
2022/12/04 10:05:51;;;;;;;15.93;8.65;;;;;;;2.41;77.06;101243.78;5035115;28;20034;-60
2022/12/04 10:08:27;;;;;;;20.48;9.15;;;;;;;2.46;77.58;101249.88;5056295;28;20583;-61
2022/12/04 10:10:52;;;;;;;18.30;10.23;;;;;;;2.54;76.56;101234.84;5061045;28;20036;-61
2022/12/04 10:13:49;;;;;;;16.58;9.35;;;;;;;2.59;76.72;101241.81;5057579;28;20650;-61
2022/12/04 10:16:24;;;;;;;16.35;9.50;;;;;;;2.61;76.77;101231.63;5045505;28;20052;-61
2022/12/04 10:19:14;;;;;;;17.48;10.05;;;;;;;2.60;76.87;101229.94;5040413;28;20143;-61
2022/12/04 10:22:10;;;;;;;17.20;9.43;;;;;;;2.62;76.96;101223.19;5048460;28;20041;-60
2022/12/04 10:24:42;;;;;;;17.75;9.75;;;;;;;2.63;77.40;101230.91;5030983;28;20059;-60
2022/12/04 10:27:28;;;;;;;17.60;9.65;;;;;;;2.65;77.08;101230.94;5038139;28;20148;-60
2022/12/04 10:30:01;;;;;;;18.60;9.70;;;;;;;2.69;77.27;101220.88;5033486;28;21045;-61
2022/12/04 10:32:30;;;;;;;28.23;14.57;;;;;;;2.75;76.86;101217.63;5034878;28;20064;-60
2022/12/04 10:35:02;;;;;;;16.77;9.80;;;;;;;2.76;76.45;101219.34;5050243;28;20454;-60
2022/12/04 10:37:28;;;;;;;18.58;10.27;;;;;;;2.72;76.10;101215.88;5052565;28;20047;-60
2022/12/04 10:40:01;;;;;;;16.60;9.90;;;;;;;2.70;76.54;101206.41;5053970;28;20037;-60
2022/12/04 10:42:46;;;;;;;17.92;9.68;;;;;;;2.72;77.13;101204.78;5057543;28;20043;-60
2022/12/04 10:45:12;;;;;;;15.68;8.73;;;;;;;2.68;76.47;101198.72;5056679;28;20054;-60
2022/12/04 10:47:42;;;;;;;17.25;8.60;;;;;;;2.66;76.73;101199.50;5049112;28;20033;-60
2022/12/04 10:50:15;;;;;;;17.52;9.93;;;;;;;2.63;77.25;101195.16;5053211;28;20033;-60
2022/12/04 10:52:41;;;;;;;17.30;8.88;;;;;;;2.68;77.18;101190.19;5050821;28;20137;-60
2022/12/04 10:55:06;;;;;;;21.60;10.73;;;;;;;2.67;76.91;101181.66;5057862;28;20721;-60
2022/12/04 10:57:41;;;;;;;16.15;9.65;;;;;;;2.72;76.50;101189.47;5053178;28;20047;-60
2022/12/04 11:00:32;;;;;;;17.95;9.70;;;;;;;2.77;77.37;101187.91;5051603;28;20036;-60
2022/12/04 11:03:04;;;;;;;18.40;10.20;;;;;;;2.77;76.83;101183.69;5055873;28;20028;-61
2022/12/04 11:05:59;;;;;;;18.55;9.88;;;;;;;2.79;77.25;101189.69;5047420;28;20068;-60
2022/12/04 11:08:32;;;;;;;19.83;10.03;;;;;;;2.81;77.14;101182.97;5043366;28;20167;-60
2022/12/04 11:11:04;;;;;;;25.20;11.70;;;;;;;2.87;76.66;101172.06;5047462;28;20290;-61
2022/12/04 11:13:30;;;;;;;19.33;9.48;;;;;;;2.84;76.83;101177.06;5057090;28;20565;-61
2022/12/04 11:15:57;;;;;;;18.85;10.48;;;;;;;2.89;77.11;101165.28;5055804;28;20048;-61
2022/12/04 11:18:33;;;;;;;18.63;10.40;;;;;;;2.91;76.78;101168.75;5055115;28;20056;-61
2022/12/04 11:21:03;;;;;;;19.23;9.55;;;;;;;2.95;76.67;101168.91;5053217;28;20064;-61
2022/12/04 11:23:39;;;;;;;18.15;10.68;;;;;;;2.91;76.85;101172.16;5057473;28;20631;-61
2022/12/04 11:26:05;;;;;;;18.63;10.13;;;;;;;2.91;76.38;101177.28;5053931;28;20029;-61
2022/12/04 11:28:31;;;;;;;20.95;10.77;;;;;;;2.85;77.46;101174.53;5052253;28;20413;-61
2022/12/04 11:31:00;;;;;;;18.92;10.43;;;;;;;2.79;77.68;101176.03;5048789;28;20051;-60
2022/12/04 11:33:45;;;;;;;14.77;8.65;;;;;;;2.83;77.67;101172.78;5046860;28;20662;-60
2022/12/04 11:36:35;;;;;;;18.17;10.65;;;;;;;2.87;77.85;101161.84;5033512;28;20191;-61
2022/12/04 11:39:14;;;;;;;19.05;10.13;;;;;;;2.87;77.42;101165.22;5033302;28;20025;-61
2022/12/04 11:41:40;;;;;;;17.70;10.57;;;;;;;2.89;77.39;101170.41;5030850;28;20037;-61
2022/12/04 11:44:19;;;;;;;21.42;10.95;;;;;;;2.86;77.18;101163.53;5046853;28;20115;-61
2022/12/04 11:46:52;;;;;;;20.60;9.57;;;;;;;2.82;77.57;101163.38;5052404;28;20440;-61